createdAt,value
2023-05-09T00:01:06.565Z,12.70
2023-05-09T00:03:38.555Z,12.70
2023-05-09T00:06:11.651Z,12.80
2023-05-09T00:08:43.358Z,12.70
2023-05-09T00:11:15.121Z,12.80
2023-05-09T00:13:47.104Z,12.70
2023-05-09T00:16:20.578Z,12.70
2023-05-09T00:18:52.773Z,12.70
2023-05-09T00:21:24.629Z,12.70
2023-05-09T00:23:56.928Z,12.70
2023-05-09T00:26:28.656Z,12.70
2023-05-09T00:29:00.390Z,12.60
2023-05-09T00:31:32.226Z,12.70
2023-05-09T00:34:04.066Z,12.60
2023-05-09T00:36:35.745Z,12.50
2023-05-09T00:39:08.450Z,12.50
2023-05-09T00:41:40.195Z,12.50
2023-05-09T00:44:12.004Z,12.50
2023-05-09T00:46:44.544Z,12.50
2023-05-09T00:49:16.274Z,12.60
2023-05-09T00:51:48.891Z,12.60
2023-05-09T00:54:20.609Z,12.60
2023-05-09T00:56:52.295Z,12.60
2023-05-09T00:59:24.152Z,12.60
2023-05-09T01:01:56.132Z,12.70
2023-05-09T01:04:28.055Z,12.70
2023-05-09T01:07:18.427Z,12.70
2023-05-09T01:09:53.216Z,12.70
2023-05-09T01:12:30.844Z,12.70
2023-05-09T01:15:24.677Z,12.70
2023-05-09T01:18:07.256Z,12.70
2023-05-09T01:20:45.972Z,12.80
2023-05-09T01:23:17.644Z,12.80
2023-05-09T01:25:58.013Z,12.90
2023-05-09T01:28:54.258Z,12.80
2023-05-09T01:31:28.474Z,12.90
2023-05-09T01:34:02.421Z,12.80
2023-05-09T01:36:37.119Z,12.80
2023-05-09T01:39:13.118Z,12.80
2023-05-09T01:41:46.193Z,12.80
2023-05-09T01:44:18.518Z,12.80
2023-05-09T01:46:54.764Z,12.70
2023-05-09T01:49:30.909Z,12.70
2023-05-09T01:52:13.996Z,12.70
2023-05-09T01:54:46.457Z,12.70
2023-05-09T01:57:19.854Z,12.70
2023-05-09T01:59:53.265Z,12.60
2023-05-09T02:02:27.374Z,12.60
2023-05-09T02:05:00.337Z,12.60
2023-05-09T02:07:32.848Z,12.60
2023-05-09T02:10:07.200Z,12.50
2023-05-09T02:12:39.716Z,12.50
2023-05-09T02:15:11.857Z,12.50
2023-05-09T02:17:43.717Z,12.50
2023-05-09T02:20:15.446Z,12.50
2023-05-09T02:22:47.751Z,12.50
2023-05-09T02:25:19.740Z,12.50
2023-05-09T02:27:53.509Z,12.50
2023-05-09T02:30:26.962Z,12.50
2023-05-09T02:33:03.394Z,12.50
2023-05-09T02:35:35.986Z,12.50
2023-05-09T02:38:08.065Z,12.40
2023-05-09T02:40:42.195Z,12.40
2023-05-09T02:43:15.346Z,12.40
2023-05-09T02:45:47.157Z,12.40
2023-05-09T02:48:18.932Z,12.30
2023-05-09T02:50:50.778Z,12.30
2023-05-09T02:53:22.487Z,12.20
2023-05-09T02:55:54.637Z,12.20
2023-05-09T02:58:26.334Z,12.20
2023-05-09T03:00:58.035Z,12.20
2023-05-09T03:03:30.940Z,12.20
2023-05-09T03:06:02.690Z,12.20
2023-05-09T03:08:34.416Z,12.10
2023-05-09T03:11:06.341Z,12.20
2023-05-09T03:13:38.079Z,12.10
2023-05-09T03:16:15.080Z,12.10
2023-05-09T03:18:46.782Z,12.10
2023-05-09T03:21:18.476Z,12.10
2023-05-09T03:23:50.168Z,12.10
2023-05-09T03:26:22.054Z,12.10
2023-05-09T03:28:53.779Z,12.00
2023-05-09T03:31:25.572Z,12.00
2023-05-09T03:33:57.430Z,12.00
2023-05-09T03:36:29.468Z,12.00
2023-05-09T03:39:01.173Z,12.00
2023-05-09T03:41:32.954Z,12.00
2023-05-09T03:44:05.324Z,12.00
2023-05-09T03:46:37.089Z,12.00
2023-05-09T03:49:08.808Z,12.00
2023-05-09T03:51:42.141Z,11.90
2023-05-09T03:54:14.032Z,11.90
2023-05-09T03:56:45.744Z,11.90
2023-05-09T03:59:17.437Z,11.80
2023-05-09T04:01:49.254Z,11.80
2023-05-09T04:04:21.203Z,11.70
2023-05-09T04:06:53.014Z,11.70
2023-05-09T04:09:24.891Z,11.70
2023-05-09T04:11:56.573Z,11.70
2023-05-09T04:14:28.252Z,11.70
2023-05-09T04:17:00.066Z,11.70
2023-05-09T04:19:31.933Z,11.70
2023-05-09T04:22:03.619Z,11.70
2023-05-09T04:24:35.919Z,11.70
2023-05-09T04:27:07.956Z,11.70
2023-05-09T04:29:39.701Z,11.70
2023-05-09T04:32:12.007Z,11.80
2023-05-09T04:34:43.781Z,11.80
2023-05-09T04:37:15.662Z,11.90
2023-05-09T04:39:47.367Z,12.00
2023-05-09T04:42:19.054Z,12.00
2023-05-09T04:44:51.763Z,12.10
2023-05-09T04:47:23.487Z,12.10
2023-05-09T04:49:55.211Z,12.20
2023-05-09T04:52:26.949Z,12.30
2023-05-09T04:54:58.644Z,12.40
2023-05-09T04:57:30.417Z,12.50
2023-05-09T05:00:02.120Z,12.60
2023-05-09T05:02:33.943Z,12.70
2023-05-09T05:05:11.627Z,12.80
2023-05-09T05:07:44.418Z,12.90
2023-05-09T05:10:16.190Z,13.00
2023-05-09T05:12:47.968Z,13.10
2023-05-09T05:15:19.776Z,13.20
2023-05-09T05:17:51.538Z,13.30
2023-05-09T05:20:23.376Z,13.30
2023-05-09T05:22:55.181Z,13.40
2023-05-09T05:25:27.106Z,13.40
2023-05-09T05:27:58.875Z,13.40
2023-05-09T05:30:32.780Z,13.40
2023-05-09T05:33:05.859Z,13.50
2023-05-09T05:35:37.613Z,13.60
2023-05-09T05:38:09.379Z,13.60
2023-05-09T05:40:41.033Z,13.50
2023-05-09T05:43:12.743Z,13.50
2023-05-09T05:45:44.487Z,13.60
2023-05-09T05:48:16.253Z,13.70
2023-05-09T05:50:47.923Z,13.80
2023-05-09T05:53:19.669Z,13.80
2023-05-09T05:55:51.530Z,13.90
2023-05-09T05:58:24.514Z,14.00
2023-05-09T06:00:56.381Z,14.20
2023-05-09T06:03:28.146Z,14.30
2023-05-09T06:06:00.073Z,14.50
2023-05-09T06:08:31.860Z,14.50
2023-05-09T06:11:03.668Z,14.60
2023-05-09T06:13:35.550Z,14.60
2023-05-09T06:16:18.703Z,14.60
2023-05-09T06:18:54.212Z,14.60
2023-05-09T06:21:27.556Z,14.70
2023-05-09T06:24:08.424Z,14.80
2023-05-09T06:26:43.997Z,14.80
2023-05-09T06:29:15.764Z,14.80
2023-05-09T06:31:47.565Z,14.80
2023-05-09T06:34:19.402Z,14.70
2023-05-09T06:36:51.166Z,14.70
2023-05-09T06:39:22.942Z,14.80
2023-05-09T06:41:54.629Z,14.80
2023-05-09T06:44:26.770Z,14.90
2023-05-09T06:46:58.508Z,14.90
2023-05-09T06:49:30.229Z,15.10
2023-05-09T06:52:02.050Z,15.20
2023-05-09T06:54:33.795Z,15.30
2023-05-09T06:57:05.537Z,15.50
2023-05-09T06:59:37.306Z,15.80
2023-05-09T07:02:09.077Z,16.00
2023-05-09T07:04:40.772Z,16.20
2023-05-09T07:07:12.537Z,16.40
2023-05-09T07:09:44.348Z,16.60
2023-05-09T07:12:16.234Z,16.50
2023-05-09T07:14:47.933Z,16.40
2023-05-09T07:17:23.711Z,16.50
2023-05-09T07:19:56.247Z,16.50
2023-05-09T07:22:29.348Z,16.50
2023-05-09T07:25:03.511Z,16.60
2023-05-09T07:27:36.557Z,16.60
2023-05-09T07:30:09.316Z,16.60
2023-05-09T07:32:41.136Z,16.60
2023-05-09T07:35:13.085Z,16.60
2023-05-09T07:37:44.945Z,16.70
2023-05-09T07:40:17.015Z,16.70
2023-05-09T07:42:49.675Z,16.80
2023-05-09T07:45:23.750Z,17.00
2023-05-09T07:47:55.766Z,17.10
2023-05-09T07:50:27.580Z,17.30
2023-05-09T07:52:59.979Z,17.40
2023-05-09T07:55:31.685Z,17.50
2023-05-09T07:58:03.459Z,17.50
2023-05-09T08:00:35.297Z,17.80
2023-05-09T08:03:07.243Z,17.90
2023-05-09T08:05:39.355Z,18.10
2023-05-09T08:08:11.137Z,18.10
2023-05-09T08:10:43.635Z,18.10
2023-05-09T08:13:15.410Z,18.20
2023-05-09T08:15:47.110Z,18.20
2023-05-09T08:18:18.838Z,18.40
2023-05-09T08:20:51.061Z,18.40
2023-05-09T08:23:22.748Z,18.60
2023-05-09T08:25:54.976Z,18.50
2023-05-09T08:28:28.670Z,18.20
2023-05-09T08:31:00.705Z,18.00
2023-05-09T08:33:32.480Z,17.90
2023-05-09T08:36:04.565Z,17.60
2023-05-09T08:38:37.089Z,17.60
2023-05-09T08:41:08.771Z,17.40
2023-05-09T08:43:40.795Z,17.20
2023-05-09T08:46:14.191Z,17.10
2023-05-09T08:48:45.982Z,17.00
2023-05-09T08:51:18.170Z,16.90
2023-05-09T08:53:51.064Z,16.90
2023-05-09T08:56:22.993Z,17.00
2023-05-09T08:58:55.964Z,17.10
2023-05-09T09:01:28.772Z,17.10
2023-05-09T09:04:01.462Z,17.10
2023-05-09T09:06:34.747Z,17.20
2023-05-09T09:09:11.570Z,17.20
2023-05-09T09:11:44.536Z,17.20
2023-05-09T09:14:25.507Z,17.20
2023-05-09T09:16:58.292Z,17.30
2023-05-09T09:19:31.568Z,17.50
2023-05-09T09:22:05.020Z,17.70
2023-05-09T09:24:36.937Z,18.10
2023-05-09T09:27:08.685Z,18.90
2023-05-09T09:29:40.433Z,19.90
2023-05-09T09:32:12.269Z,19.90
2023-05-09T09:34:44.060Z,19.80
2023-05-09T09:37:23.203Z,19.80
2023-05-09T09:39:56.178Z,20.20
2023-05-09T09:42:40.159Z,20.20
2023-05-09T09:45:14.016Z,19.90
2023-05-09T09:47:47.504Z,19.60
2023-05-09T09:50:23.135Z,19.60
2023-05-09T09:52:56.485Z,19.60
2023-05-09T09:55:29.322Z,19.50
2023-05-09T09:58:01.090Z,19.40
2023-05-09T10:00:32.946Z,19.20
2023-05-09T10:03:04.777Z,19.30
2023-05-09T10:05:38.759Z,19.70
2023-05-09T10:08:10.767Z,20.50
2023-05-09T10:10:42.869Z,21.30
2023-05-09T10:13:14.750Z,21.50
2023-05-09T10:15:53.571Z,22.00
2023-05-09T10:18:30.706Z,22.60
2023-05-09T10:21:03.669Z,22.70
2023-05-09T10:23:38.292Z,22.30
2023-05-09T10:26:23.175Z,22.70
2023-05-09T10:28:57.221Z,23.50
2023-05-09T10:31:32.504Z,24.00
2023-05-09T10:34:08.521Z,24.10
2023-05-09T10:36:40.381Z,24.20
2023-05-09T10:39:12.291Z,24.50
2023-05-09T10:41:44.815Z,25.10
2023-05-09T10:44:16.852Z,25.40
2023-05-09T10:46:48.844Z,25.20
2023-05-09T10:49:21.232Z,24.80
2023-05-09T10:51:52.928Z,24.30
2023-05-09T10:54:31.001Z,24.40
2023-05-09T10:57:03.629Z,24.70
2023-05-09T10:59:38.483Z,24.90
2023-05-09T11:02:15.657Z,25.00
2023-05-09T11:04:47.736Z,24.50
2023-05-09T11:07:25.587Z,23.60
2023-05-09T11:10:10.164Z,22.80
2023-05-09T11:12:59.088Z,22.50
2023-05-09T11:15:31.148Z,22.80
2023-05-09T11:18:08.308Z,23.50
2023-05-09T11:20:44.521Z,23.60
2023-05-09T11:23:18.587Z,23.70
2023-05-09T11:25:50.368Z,23.50
2023-05-09T11:28:30.493Z,23.00
2023-05-09T11:31:17.740Z,22.70
2023-05-09T11:33:55.060Z,22.40
2023-05-09T11:36:33.388Z,22.30
2023-05-09T11:39:10.303Z,22.30
2023-05-09T11:41:44.106Z,22.00
2023-05-09T11:44:18.372Z,22.30
2023-05-09T11:46:50.240Z,22.10
2023-05-09T11:49:22.399Z,22.10
2023-05-09T11:51:54.245Z,22.20
2023-05-09T11:54:26.192Z,22.10
2023-05-09T11:57:00.535Z,22.20
2023-05-09T11:59:36.677Z,22.10
2023-05-09T12:02:08.758Z,21.90
2023-05-09T12:04:40.649Z,21.90
2023-05-09T12:07:13.084Z,22.00
2023-05-09T12:09:45.143Z,22.20
2023-05-09T12:12:20.759Z,22.00
2023-05-09T12:14:53.247Z,22.00
2023-05-09T12:17:25.190Z,22.00
2023-05-09T12:20:02.559Z,21.80
2023-05-09T12:22:34.846Z,21.70
2023-05-09T12:25:10.240Z,21.90
2023-05-09T12:27:42.107Z,21.80
2023-05-09T12:30:16.130Z,21.60
2023-05-09T12:32:48.082Z,21.50
2023-05-09T12:35:23.377Z,21.30
2023-05-09T12:38:01.659Z,21.10
2023-05-09T12:40:33.747Z,20.90
2023-05-09T12:43:05.742Z,20.80
2023-05-09T12:45:39.152Z,20.70
2023-05-09T12:48:11.801Z,20.50
2023-05-09T12:50:47.314Z,20.50
2023-05-09T12:53:26.439Z,20.50
2023-05-09T12:56:03.615Z,20.70
2023-05-09T12:58:35.580Z,21.00
2023-05-09T13:01:07.349Z,21.10
2023-05-09T13:03:39.096Z,21.30
2023-05-09T13:06:14.792Z,21.40
2023-05-09T13:08:58.653Z,21.50
2023-05-09T13:11:30.694Z,21.60
2023-05-09T13:14:04.160Z,21.60
2023-05-09T13:16:36.063Z,21.60
2023-05-09T13:19:08.246Z,21.30
2023-05-09T13:21:40.024Z,21.10
2023-05-09T13:24:11.784Z,21.10
2023-05-09T13:26:43.472Z,20.90
2023-05-09T13:29:15.208Z,20.70
2023-05-09T13:31:46.930Z,20.50
2023-05-09T13:34:18.764Z,20.40
2023-05-09T13:36:50.465Z,20.30
2023-05-09T13:39:22.371Z,20.30
2023-05-09T13:41:54.061Z,20.10
2023-05-09T13:44:25.917Z,20.00
2023-05-09T13:46:58.691Z,20.00
2023-05-09T13:49:30.415Z,20.00
2023-05-09T13:52:02.093Z,20.00
2023-05-09T13:54:37.078Z,20.10
2023-05-09T13:57:08.868Z,20.10
2023-05-09T13:59:43.395Z,20.00
2023-05-09T14:02:15.084Z,20.00
2023-05-09T14:04:47.610Z,20.10
2023-05-09T14:07:20.419Z,20.10
2023-05-09T14:09:58.675Z,20.20
2023-05-09T14:12:40.880Z,20.20
2023-05-09T14:15:13.182Z,20.30
2023-05-09T14:17:45.054Z,20.30
2023-05-09T14:20:17.007Z,20.30
2023-05-09T14:22:48.802Z,20.50
2023-05-09T14:25:20.698Z,20.50
2023-05-09T14:27:54.007Z,20.50
2023-05-09T14:30:26.516Z,20.50
2023-05-09T14:32:58.302Z,20.50
2023-05-09T14:35:32.824Z,20.60
2023-05-09T14:38:04.560Z,20.60
2023-05-09T14:40:36.310Z,20.40
2023-05-09T14:43:09.422Z,20.30
2023-05-09T14:45:41.165Z,20.20
2023-05-09T14:48:15.251Z,20.10
2023-05-09T14:50:49.442Z,20.00
2023-05-09T14:53:22.499Z,20.00
2023-05-09T14:55:54.661Z,20.00
2023-05-09T14:58:26.398Z,20.10
2023-05-09T15:00:58.143Z,20.20
2023-05-09T15:03:30.501Z,20.30
2023-05-09T15:06:02.397Z,20.30
2023-05-09T15:08:35.547Z,20.30
2023-05-09T15:11:08.072Z,20.40
2023-05-09T15:13:39.835Z,20.60
2023-05-09T15:16:12.120Z,20.50
2023-05-09T15:18:45.514Z,20.60
2023-05-09T15:21:17.205Z,20.50
2023-05-09T15:23:48.976Z,20.30
2023-05-09T15:26:20.698Z,20.30
2023-05-09T15:28:52.528Z,20.20
2023-05-09T15:31:25.468Z,19.90
2023-05-09T15:33:57.294Z,19.90
2023-05-09T15:36:33.780Z,19.90
2023-05-09T15:39:05.687Z,19.90
2023-05-09T15:41:37.533Z,19.90
2023-05-09T15:44:09.333Z,19.90
2023-05-09T15:46:41.228Z,20.00
2023-05-09T15:49:13.065Z,20.00
2023-05-09T15:51:44.923Z,19.80
2023-05-09T15:54:17.427Z,19.70
2023-05-09T15:56:49.173Z,19.70
2023-05-09T15:59:21.101Z,19.60
2023-05-09T16:01:53.109Z,19.60
2023-05-09T16:04:24.946Z,19.60
2023-05-09T16:06:57.021Z,19.50
2023-05-09T16:09:28.754Z,19.40
2023-05-09T16:12:00.483Z,19.40
2023-05-09T16:14:32.204Z,19.40
2023-05-09T16:17:04.627Z,19.40
2023-05-09T16:19:36.723Z,19.30
2023-05-09T16:22:08.582Z,19.30
2023-05-09T16:24:40.266Z,19.30
2023-05-09T16:27:14.368Z,19.30
2023-05-09T16:29:46.245Z,19.30
2023-05-09T16:32:17.988Z,19.20
2023-05-09T16:34:49.749Z,19.20
2023-05-09T16:37:21.474Z,19.10
2023-05-09T16:39:53.160Z,19.10
2023-05-09T16:42:25.127Z,19.10
2023-05-09T16:44:57.689Z,19.10
2023-05-09T16:47:29.410Z,19.00
2023-05-09T16:50:01.301Z,19.00
2023-05-09T16:52:33.053Z,19.00
2023-05-09T16:55:05.743Z,18.90
2023-05-09T16:57:37.640Z,18.80
2023-05-09T17:00:09.891Z,18.70
2023-05-09T17:02:41.664Z,18.70
2023-05-09T17:05:13.398Z,18.70
2023-05-09T17:07:45.278Z,18.70
2023-05-09T17:10:17.299Z,18.70
2023-05-09T17:12:49.268Z,18.60
2023-05-09T17:15:21.146Z,18.40
2023-05-09T17:17:53.171Z,18.20
2023-05-09T17:20:25.674Z,18.00
2023-05-09T17:22:57.712Z,17.70
2023-05-09T17:25:29.434Z,17.50
2023-05-09T17:28:01.289Z,17.30
2023-05-09T17:30:33.405Z,17.00
2023-05-09T17:33:05.654Z,16.80
2023-05-09T17:35:38.149Z,16.60
2023-05-09T17:38:09.812Z,16.40
2023-05-09T17:40:41.512Z,16.10
2023-05-09T17:43:13.314Z,15.90
2023-05-09T17:45:46.211Z,15.80
2023-05-09T17:48:18.264Z,15.70
2023-05-09T17:50:51.078Z,15.60
2023-05-09T17:53:22.832Z,15.50
2023-05-09T17:55:54.602Z,15.40
2023-05-09T17:58:27.666Z,15.30
2023-05-09T18:00:59.831Z,15.30
2023-05-09T18:03:32.390Z,15.20
2023-05-09T18:06:04.990Z,15.20
2023-05-09T18:08:36.875Z,15.20
2023-05-09T18:11:08.554Z,15.10
2023-05-09T18:13:40.234Z,15.10
2023-05-09T18:16:12.049Z,15.10
2023-05-09T18:18:44.854Z,15.00
2023-05-09T18:21:16.575Z,15.00
2023-05-09T18:23:48.258Z,15.00
2023-05-09T18:26:19.979Z,15.00
2023-05-09T18:28:52.278Z,14.90
2023-05-09T18:31:24.289Z,14.90
2023-05-09T18:33:56.371Z,14.90
2023-05-09T18:36:29.935Z,14.90
2023-05-09T18:39:01.983Z,14.90
2023-05-09T18:41:34.267Z,14.90
2023-05-09T18:44:06.066Z,14.80
2023-05-09T18:46:38.032Z,14.80
2023-05-09T18:49:10.338Z,14.80
2023-05-09T18:51:42.021Z,14.70
2023-05-09T18:54:14.042Z,14.70
2023-05-09T18:56:45.997Z,14.70
2023-05-09T18:59:17.862Z,14.70
2023-05-09T19:01:49.952Z,14.70
2023-05-09T19:04:21.713Z,14.70
2023-05-09T19:06:53.681Z,14.70
2023-05-09T19:09:25.576Z,14.60
2023-05-09T19:11:59.449Z,14.60
2023-05-09T19:14:31.334Z,14.50
2023-05-09T19:17:04.552Z,14.50
2023-05-09T19:19:36.356Z,14.50
2023-05-09T19:22:08.079Z,14.50
2023-05-09T19:24:40.970Z,14.50
2023-05-09T19:27:12.669Z,14.40
2023-05-09T19:29:44.397Z,14.40
2023-05-09T19:32:17.970Z,14.40
2023-05-09T19:34:49.730Z,14.40
2023-05-09T19:37:21.461Z,14.40
2023-05-09T19:39:53.641Z,14.40
2023-05-09T19:42:25.429Z,14.30
2023-05-09T19:44:57.221Z,14.30
2023-05-09T19:47:29.089Z,14.30
2023-05-09T19:50:02.085Z,14.30
2023-05-09T19:52:36.237Z,14.30
2023-05-09T19:55:08.238Z,14.20
2023-05-09T19:57:40.209Z,14.30
2023-05-09T20:00:12.633Z,14.20
2023-05-09T20:02:44.860Z,14.30
2023-05-09T20:05:16.693Z,14.20
2023-05-09T20:07:48.395Z,14.20
2023-05-09T20:10:20.874Z,14.20
2023-05-09T20:12:53.173Z,14.20
2023-05-09T20:15:25.848Z,14.20
2023-05-09T20:17:57.661Z,14.20
2023-05-09T20:20:32.194Z,14.20
2023-05-09T20:23:04.005Z,14.20
2023-05-09T20:25:35.732Z,14.10
2023-05-09T20:28:07.448Z,14.10
2023-05-09T20:30:39.146Z,14.10
2023-05-09T20:33:10.929Z,14.10
2023-05-09T20:35:43.577Z,14.10
2023-05-09T20:38:15.856Z,14.10
2023-05-09T20:40:47.901Z,14.10
2023-05-09T20:43:19.916Z,14.10
2023-05-09T20:45:52.160Z,14.00
2023-05-09T20:48:23.978Z,14.00
2023-05-09T20:50:55.691Z,14.00
2023-05-09T20:53:31.226Z,14.00
2023-05-09T20:56:03.329Z,14.00
2023-05-09T20:58:35.408Z,13.90
2023-05-09T21:01:07.206Z,13.90
2023-05-09T21:03:39.153Z,13.90
2023-05-09T21:06:11.050Z,13.90
2023-05-09T21:08:43.292Z,13.90
2023-05-09T21:11:15.178Z,14.00
2023-05-09T21:13:46.938Z,13.90
2023-05-09T21:16:18.720Z,13.90
2023-05-09T21:18:50.481Z,13.90
2023-05-09T21:21:22.417Z,13.90
2023-05-09T21:23:54.204Z,13.90
2023-05-09T21:26:26.126Z,13.90
2023-05-09T21:28:57.814Z,13.90
2023-05-09T21:31:29.556Z,13.90
2023-05-09T21:34:01.697Z,13.90
2023-05-09T21:36:33.580Z,13.80
2023-05-09T21:39:09.048Z,13.80
2023-05-09T21:41:42.755Z,13.80
2023-05-09T21:44:15.111Z,13.80
2023-05-09T21:46:47.047Z,13.80
2023-05-09T21:49:20.946Z,13.80
2023-05-09T21:51:53.363Z,13.80
2023-05-09T21:54:25.129Z,13.70
2023-05-09T21:56:56.886Z,13.70
2023-05-09T21:59:28.617Z,13.70
2023-05-09T22:02:00.346Z,13.70
2023-05-09T22:04:32.112Z,13.70
2023-05-09T22:07:04.878Z,13.80
2023-05-09T22:09:36.618Z,13.70
2023-05-09T22:12:08.851Z,13.70
2023-05-09T22:14:52.537Z,13.70
2023-05-09T22:17:27.376Z,13.70
2023-05-09T22:19:59.044Z,13.70
2023-05-09T22:22:31.347Z,13.70
2023-05-09T22:25:07.103Z,13.70
2023-05-09T22:27:38.840Z,13.70
2023-05-09T22:30:12.330Z,13.70
2023-05-09T22:32:44.266Z,13.70
2023-05-09T22:35:16.037Z,13.70
2023-05-09T22:37:47.769Z,13.60
2023-05-09T22:40:19.614Z,13.60
2023-05-09T22:42:51.573Z,13.60
2023-05-09T22:45:23.340Z,13.50
2023-05-09T22:47:55.133Z,13.50
2023-05-09T22:50:26.888Z,13.50
2023-05-09T22:52:58.600Z,13.40
2023-05-09T22:55:30.404Z,13.40
2023-05-09T22:58:02.292Z,13.40
2023-05-09T23:00:34.517Z,13.40
2023-05-09T23:03:06.455Z,13.40
2023-05-09T23:05:38.256Z,13.40
2023-05-09T23:08:10.319Z,13.30
2023-05-09T23:10:42.065Z,13.30
2023-05-09T23:13:13.908Z,13.30
2023-05-09T23:15:47.534Z,13.30
2023-05-09T23:18:21.064Z,13.30
2023-05-09T23:20:52.773Z,13.30
2023-05-09T23:23:24.530Z,13.30
2023-05-09T23:25:56.312Z,13.20
2023-05-09T23:28:27.988Z,13.20
2023-05-09T23:30:59.672Z,13.20
2023-05-09T23:33:31.372Z,13.20
2023-05-09T23:36:04.030Z,13.20
2023-05-09T23:38:35.763Z,13.20
2023-05-09T23:41:07.496Z,13.20
2023-05-09T23:43:39.517Z,13.20
2023-05-09T23:46:11.489Z,13.20
2023-05-09T23:48:43.168Z,13.20
2023-05-09T23:51:14.862Z,13.20
2023-05-09T23:53:46.625Z,13.20
2023-05-09T23:56:18.402Z,13.20
2023-05-09T23:58:50.098Z,13.20
